createdAt,value
2023-05-06T00:19:24.896Z,11.5
2023-05-06T00:39:24.862Z,11.5
2023-05-06T00:59:24.867Z,11.5
2023-05-06T01:19:24.870Z,11.5
2023-05-06T01:39:24.831Z,11.49
2023-05-06T01:59:24.833Z,11.48
2023-05-06T02:19:24.787Z,11.47
2023-05-06T02:39:24.780Z,11.46
2023-05-06T02:59:24.760Z,11.45
2023-05-06T03:19:24.738Z,11.43
2023-05-06T03:39:24.726Z,11.42
2023-05-06T03:59:24.441Z,11.41
2023-05-06T04:19:24.426Z,11.4
2023-05-06T04:39:24.683Z,11.4
2023-05-06T04:59:24.679Z,11.4
2023-05-06T05:19:24.638Z,11.39
2023-05-06T05:39:24.639Z,11.38
2023-05-06T06:19:24.332Z,11.36
2023-05-06T06:39:24.559Z,11.34
2023-05-06T06:59:24.542Z,11.32
2023-05-06T07:19:24.541Z,11.31
2023-05-06T07:39:24.516Z,11.3
2023-05-06T07:59:24.215Z,11.3
2023-05-06T08:19:24.485Z,11.3
2023-05-06T08:39:24.442Z,11.29
2023-05-06T08:59:24.416Z,11.29
2023-05-06T09:19:24.414Z,11.28
2023-05-06T09:39:24.089Z,11.27
2023-05-06T10:19:24.279Z,11.25
2023-05-06T10:39:24.264Z,11.23
2023-05-06T10:59:24.219Z,11.23
2023-05-06T11:19:24.196Z,11.22
2023-05-06T11:39:24.163Z,11.22
2023-05-06T11:59:24.186Z,11.21
2023-05-06T12:19:23.857Z,11.21
2023-05-06T12:39:24.093Z,11.21
2023-05-06T12:59:24.101Z,11.22
2023-05-06T13:19:32.101Z,11.23
2023-05-06T13:39:23.995Z,11.24
2023-05-06T13:59:23.929Z,11.25
2023-05-06T14:19:23.942Z,11.27
2023-05-06T14:39:23.958Z,11.29
2023-05-06T14:59:23.855Z,11.3
2023-05-06T15:19:23.834Z,11.3
2023-05-06T15:39:23.793Z,11.32
2023-05-06T15:59:23.767Z,11.35
2023-05-06T16:19:23.514Z,11.38
2023-05-06T16:39:23.716Z,11.4
2023-05-06T16:59:23.706Z,11.41
2023-05-06T17:19:23.692Z,11.44
2023-05-06T17:39:23.637Z,11.48
2023-05-06T17:59:23.873Z,11.5
2023-05-06T18:19:23.585Z,11.51
2023-05-06T18:39:23.626Z,11.52
2023-05-06T18:59:23.530Z,11.55
2023-05-06T19:19:23.494Z,11.59
2023-05-06T19:59:23.453Z,11.61
2023-05-06T20:19:23.445Z,11.63
2023-05-06T20:39:23.410Z,11.65
2023-05-06T20:59:23.387Z,11.68
2023-05-06T21:19:22.747Z,11.69
2023-05-06T21:39:23.340Z,11.71
2023-05-06T21:59:23.296Z,11.71
2023-05-06T22:19:23.279Z,11.71
2023-05-06T22:39:23.249Z,11.72
2023-05-06T22:59:23.219Z,11.73
2023-05-06T23:19:23.216Z,11.74
